Time;durP1;ratioP1;P1;durP2;ratioP2;P2;SDS_P1;SDS_P2;PMS_P1;PMS_P2;Temp;Humidity;BMP_temperature;BMP_pressure;BME280_temperature;BME280_humidity;BME280_pressure;Samples;Min_cycle;Max_cycle;Signal;HPM_P1;HPM_P2
2022/01/19 00:00:44;;;;;;;3.38;1.84;;;;;;;;;;352047;151;865673;-55
2022/01/19 00:01:46;;;;;;;2.66;1.78;;;;;;;;;;350796;151;866673;-58
2022/01/19 00:02:48;;;;;;;3.01;1.84;;;;;;;;;;351785;150;865978;-56
2022/01/19 00:03:49;;;;;;;5.26;1.83;;;;;;;;;;350194;150;866445;-56
2022/01/19 00:04:51;;;;;;;5.11;1.64;;;;;;;;;;351483;152;865547;-58
2022/01/19 00:05:52;;;;;;;4.44;1.56;;;;;;;;;;351844;150;866232;-56
2022/01/19 00:06:54;;;;;;;2.01;1.47;;;;;;;;;;349527;150;858887;-55
2022/01/19 00:07:56;;;;;;;3.81;1.89;;;;;;;;;;350510;152;859034;-57
2022/01/19 00:08:57;;;;;;;3.73;1.46;;;;;;;;;;352266;150;857619;-56
2022/01/19 00:10:03;;;;;;;3.71;1.76;;;;;;;;;;353228;150;860227;-56
2022/01/19 00:11:05;;;;;;;2.78;1.75;;;;;;;;;;352328;152;859153;-56
2022/01/19 00:12:07;;;;;;;1.99;1.29;;;;;;;;;;350878;152;859544;-56
2022/01/19 00:13:09;;;;;;;5.88;2.43;;;;;;;;;;351402;150;857308;-56
2022/01/19 00:14:11;;;;;;;3.17;1.25;;;;;;;;;;349255;150;859607;-56
2022/01/19 00:15:12;;;;;;;2.99;1.63;;;;;;;;;;351254;151;864485;-56
2022/01/19 00:16:16;;;;;;;3.31;1.76;;;;;;;;;;339939;156;866521;-56
2022/01/19 00:17:18;;;;;;;2.49;1.55;;;;;;;;;;339213;156;857415;-57
2022/01/19 00:18:20;;;;;;;2.85;1.55;;;;;;;;;;340102;157;856564;-56
2022/01/19 00:19:21;;;;;;;2.91;1.64;;;;;;;;;;339251;157;864791;-57
2022/01/19 00:20:26;;;;;;;3.35;1.57;;;;;;;;;;338264;155;857401;-56
2022/01/19 00:21:28;;;;;;;2.94;1.29;;;;;;;;;;339484;157;857884;-57
2022/01/19 00:22:30;;;;;;;4.17;1.83;;;;;;;;;;337639;157;859101;-57
2022/01/19 00:23:31;;;;;;;3.88;1.91;;;;;;;;;;341047;154;859806;-56
2022/01/19 00:24:33;;;;;;;3.67;1.38;;;;;;;;;;339984;156;864674;-56
2022/01/19 00:25:34;;;;;;;2.52;1.54;;;;;;;;;;344359;155;866268;-54
2022/01/19 00:26:36;;;;;;;3.54;1.62;;;;;;;;;;343995;154;864672;-55
2022/01/19 00:27:38;;;;;;;3.42;1.86;;;;;;;;;;337597;156;865887;-55
2022/01/19 00:28:39;;;;;;;3.05;1.69;;;;;;;;;;338195;158;866684;-55
2022/01/19 00:29:41;;;;;;;4.94;1.56;;;;;;;;;;340723;157;866586;-60
2022/01/19 00:30:43;;;;;;;4.15;1.56;;;;;;;;;;337777;157;866300;-55
2022/01/19 00:31:45;;;;;;;2.21;1.77;;;;;;;;;;343846;153;866511;-57
2022/01/19 00:32:46;;;;;;;2.59;1.58;;;;;;;;;;345287;155;857304;-58
2022/01/19 00:33:48;;;;;;;3.16;1.34;;;;;;;;;;343478;154;866882;-57
2022/01/19 00:34:50;;;;;;;1.73;1.13;;;;;;;;;;344425;153;861453;-59
2022/01/19 00:35:51;;;;;;;2.56;1.30;;;;;;;;;;345362;155;857910;-57
2022/01/19 00:36:53;;;;;;;2.49;1.53;;;;;;;;;;345341;154;867102;-58
2022/01/19 00:37:55;;;;;;;2.68;1.83;;;;;;;;;;344107;153;857559;-57
2022/01/19 00:38:56;;;;;;;2.16;1.17;;;;;;;;;;341788;153;864865;-58
2022/01/19 00:39:58;;;;;;;1.67;1.21;;;;;;;;;;343528;155;860267;-57
2022/01/19 00:41:01;;;;;;;4.94;1.75;;;;;;;;;;345257;154;864919;-56
2022/01/19 00:42:03;;;;;;;3.42;1.87;;;;;;;;;;344275;153;857333;-55
2022/01/19 00:43:05;;;;;;;4.54;1.55;;;;;;;;;;339326;156;857384;-55
2022/01/19 00:44:06;;;;;;;3.19;1.96;;;;;;;;;;342632;155;859390;-56
2022/01/19 00:45:09;;;;;;;3.56;1.68;;;;;;;;;;338691;156;858033;-55
2022/01/19 00:46:11;;;;;;;3.02;1.89;;;;;;;;;;337710;157;864829;-55
2022/01/19 00:47:13;;;;;;;4.26;1.69;;;;;;;;;;337019;157;857338;-59
2022/01/19 00:48:15;;;;;;;3.02;1.62;;;;;;;;;;339255;156;865500;-57
2022/01/19 00:49:16;;;;;;;1.39;1.29;;;;;;;;;;342028;155;857394;-55
2022/01/19 00:50:21;;;;;;;2.66;1.76;;;;;;;;;;335829;157;866619;-58
2022/01/19 00:51:22;;;;;;;2.35;1.69;;;;;;;;;;339623;156;857941;-56
2022/01/19 00:52:24;;;;;;;3.51;2.00;;;;;;;;;;338468;156;856349;-56
2022/01/19 00:53:26;;;;;;;4.99;1.74;;;;;;;;;;339203;157;865120;-56
2022/01/19 00:54:27;;;;;;;4.48;1.63;;;;;;;;;;340180;157;866619;-56
2022/01/19 00:55:29;;;;;;;5.83;1.32;;;;;;;;;;340016;157;858221;-56
2022/01/19 00:56:33;;;;;;;2.57;1.59;;;;;;;;;;341814;155;865991;-56
2022/01/19 00:57:35;;;;;;;3.08;1.63;;;;;;;;;;355626;150;858197;-56
2022/01/19 00:58:36;;;;;;;3.99;1.53;;;;;;;;;;356262;148;859494;-56
2022/01/19 00:59:38;;;;;;;1.81;1.51;;;;;;;;;;356909;149;864900;-55
2022/01/19 01:00:40;;;;;;;4.78;2.06;;;;;;;;;;355085;148;865019;-56
2022/01/19 01:01:41;;;;;;;3.48;1.79;;;;;;;;;;356376;148;864054;-56
2022/01/19 01:02:43;;;;;;;2.61;1.57;;;;;;;;;;357139;148;857382;-56
2022/01/19 01:03:45;;;;;;;4.08;1.86;;;;;;;;;;355025;149;857453;-57
2022/01/19 01:04:46;;;;;;;3.46;1.41;;;;;;;;;;357445;148;864788;-56
2022/01/19 01:05:48;;;;;;;4.31;2.01;;;;;;;;;;356844;148;864917;-56
2022/01/19 01:06:50;;;;;;;2.08;1.51;;;;;;;;;;357898;149;867242;-56
2022/01/19 01:07:51;;;;;;;2.80;1.69;;;;;;;;;;358829;147;857334;-59
2022/01/19 01:08:53;;;;;;;2.23;1.72;;;;;;;;;;356314;148;867578;-56
2022/01/19 01:09:55;;;;;;;5.46;1.41;;;;;;;;;;358331;149;865717;-56
2022/01/19 01:10:58;;;;;;;1.90;1.34;;;;;;;;;;358492;148;864755;-57
2022/01/19 01:12:08;;;;;;;1.91;1.34;;;;;;;;;;357554;148;857351;-56
2022/01/19 01:13:20;;;;;;;2.51;1.61;;;;;;;;;;357256;148;859846;-55
2022/01/19 01:15:29;;;;;;;2.92;1.43;;;;;;;;;;357939;148;858674;-56
2022/01/19 01:16:35;;;;;;;2.53;1.47;;;;;;;;;;355677;149;864499;-56
2022/01/19 01:18:55;;;;;;;3.47;1.67;;;;;;;;;;357240;147;857425;-56
2022/01/19 01:19:57;;;;;;;1.76;1.46;;;;;;;;;;359222;147;857495;-56
2022/01/19 01:20:59;;;;;;;1.39;1.23;;;;;;;;;;355991;149;866800;-56
2022/01/19 01:22:01;;;;;;;2.05;1.55;;;;;;;;;;357886;150;858648;-56
2022/01/19 01:23:03;;;;;;;2.74;1.49;;;;;;;;;;357326;148;857265;-57
2022/01/19 01:24:05;;;;;;;4.40;1.49;;;;;;;;;;358480;148;858298;-56
2022/01/19 01:25:07;;;;;;;3.28;1.71;;;;;;;;;;357086;147;858439;-56
2022/01/19 01:26:09;;;;;;;5.91;1.65;;;;;;;;;;357125;147;865317;-56
2022/01/19 01:27:11;;;;;;;1.83;1.26;;;;;;;;;;357444;148;857219;-56
2022/01/19 01:28:13;;;;;;;4.83;1.59;;;;;;;;;;358665;149;858841;-56
2022/01/19 01:29:15;;;;;;;2.71;1.74;;;;;;;;;;358354;149;857529;-56
2022/01/19 01:30:17;;;;;;;3.30;2.02;;;;;;;;;;357008;148;864626;-56
2022/01/19 01:31:19;;;;;;;5.19;1.81;;;;;;;;;;356580;147;858990;-56
2022/01/19 01:32:21;;;;;;;5.94;1.80;;;;;;;;;;357927;149;858984;-56
2022/01/19 01:33:22;;;;;;;4.49;1.45;;;;;;;;;;356855;148;866689;-56
2022/01/19 01:34:24;;;;;;;2.75;1.69;;;;;;;;;;350647;152;865793;-56
2022/01/19 01:35:25;;;;;;;1.76;1.24;;;;;;;;;;349816;150;865524;-56
2022/01/19 01:36:27;;;;;;;4.45;1.94;;;;;;;;;;358875;147;865033;-56
2022/01/19 01:37:29;;;;;;;4.54;1.57;;;;;;;;;;356499;148;866733;-53
2022/01/19 01:38:31;;;;;;;2.94;1.71;;;;;;;;;;361712;147;857294;-54
2022/01/19 01:39:32;;;;;;;3.38;1.66;;;;;;;;;;358355;148;865006;-55
2022/01/19 01:40:35;;;;;;;3.78;1.02;;;;;;;;;;357587;148;864936;-56
2022/01/19 01:41:36;;;;;;;3.13;1.37;;;;;;;;;;357513;149;857452;-55
2022/01/19 01:42:38;;;;;;;4.68;1.58;;;;;;;;;;355718;149;857742;-55
2022/01/19 01:43:41;;;;;;;2.32;1.76;;;;;;;;;;357784;148;866598;-56
2022/01/19 01:44:46;;;;;;;3.69;1.76;;;;;;;;;;357593;148;858352;-55
2022/01/19 01:45:51;;;;;;;1.99;1.38;;;;;;;;;;359972;147;857334;-56
2022/01/19 01:46:56;;;;;;;2.95;1.94;;;;;;;;;;354680;148;859137;-55
2022/01/19 01:48:05;;;;;;;7.79;2.34;;;;;;;;;;357561;148;857408;-56
2022/01/19 01:48:58;;;;;;;2.17;1.34;;;;;;;;;;356893;148;867004;-57
2022/01/19 01:53:42;;;;;;;;;;;;;;;;;;357875;149;857814;-56
2022/01/19 01:54:44;;;;;;;3.75;1.45;;;;;;;;;;357830;148;857854;-56
2022/01/19 01:55:46;;;;;;;3.61;1.84;;;;;;;;;;358598;149;857353;-56
2022/01/19 01:56:47;;;;;;;2.34;1.45;;;;;;;;;;353584;150;866597;-56
2022/01/19 01:57:49;;;;;;;3.90;1.92;;;;;;;;;;352837;150;864751;-56
2022/01/19 01:58:51;;;;;;;3.92;2.01;;;;;;;;;;350398;150;864894;-56
2022/01/19 01:59:52;;;;;;;2.81;1.76;;;;;;;;;;351070;150;866698;-57
2022/01/19 02:00:54;;;;;;;3.48;1.86;;;;;;;;;;351575;150;867633;-56
2022/01/19 02:01:56;;;;;;;3.93;1.79;;;;;;;;;;349978;150;864724;-57
2022/01/19 02:02:57;;;;;;;4.06;1.71;;;;;;;;;;351849;150;857412;-56
2022/01/19 02:03:59;;;;;;;3.71;1.49;;;;;;;;;;352427;151;857298;-57
2022/01/19 02:05:01;;;;;;;2.59;1.54;;;;;;;;;;352830;151;864664;-57
2022/01/19 02:07:44;;;;;;;2.51;1.67;;;;;;;;;;351887;150;857378;-56
2022/01/19 02:08:49;;;;;;;5.16;1.77;;;;;;;;;;353358;151;856427;-57
2022/01/19 02:09:51;;;;;;;5.66;2.01;;;;;;;;;;354046;150;860375;-57
2022/01/19 02:11:05;;;;;;;4.47;1.66;;;;;;;;;;352023;150;857837;-57
2022/01/19 02:16:19;;;;;;;5.00;1.71;;;;;;;;;;351275;150;858737;-56
2022/01/19 02:22:07;;;;;;;3.97;1.90;;;;;;;;;;350060;151;858705;-56
2022/01/19 02:22:44;;;;;;;2.58;1.61;;;;;;;;;;346395;150;858563;-57
2022/01/19 02:23:50;;;;;;;3.32;1.67;;;;;;;;;;353581;150;860565;-56
2022/01/19 02:24:49;;;;;;;2.94;1.77;;;;;;;;;;354149;151;858694;-56
2022/01/19 02:25:52;;;;;;;4.28;1.84;;;;;;;;;;353502;151;860902;-56
2022/01/19 02:27:11;;;;;;;4.67;1.82;;;;;;;;;;350073;150;864978;-56
2022/01/19 02:36:35;;;;;;;4.42;2.06;;;;;;;;;;351053;150;859065;-58
2022/01/19 02:52:01;;;;;;;4.18;1.76;;;;;;;-6.50;61.99;100646.24;370232;141;881770;-57
2022/01/19 02:53:03;;;;;;;4.01;1.88;;;;;;;-6.62;62.04;100645.36;363726;145;858380;-58
2022/01/19 02:54:05;;;;;;;2.96;1.60;;;;;;;-6.64;62.08;100646.89;363401;145;857344;-57
2022/01/19 02:55:08;;;;;;;5.54;2.16;;;;;;;-6.63;62.22;100648.64;362475;146;859476;-57
2022/01/19 02:56:16;;;;;;;7.01;2.20;;;;;;;-6.68;62.51;100653.34;354974;149;857303;-58
2022/01/19 02:57:14;;;;;;;3.39;2.16;;;;;;;-6.70;62.57;100654.00;361724;146;857854;-58
2022/01/19 02:58:20;;;;;;;6.08;2.39;;;;;;;-6.71;62.56;100648.08;363078;146;857508;-57
2022/01/19 02:59:31;;;;;;;6.55;1.88;;;;;;;-6.71;62.73;100647.22;355874;149;859590;-57
2022/01/19 03:09:39;;;;;;;3.04;1.26;;;;;;;;;;352372;151;857274;-56
2022/01/19 03:10:41;;;;;;;3.93;1.93;;;;;;;;;;354937;150;857209;-56
2022/01/19 03:11:43;;;;;;;3.83;1.92;;;;;;;;;;353505;149;859725;-56
2022/01/19 03:12:44;;;;;;;3.37;2.15;;;;;;;;;;355673;147;858965;-56
2022/01/19 03:13:46;;;;;;;5.87;1.89;;;;;;;;;;358474;147;864922;-56
2022/01/19 03:14:48;;;;;;;3.85;2.05;;;;;;;;;;355958;147;864905;-56
2022/01/19 03:15:49;;;;;;;3.19;1.99;;;;;;;;;;354880;149;857395;-55
2022/01/19 03:16:51;;;;;;;5.85;2.47;;;;;;;;;;355104;150;866609;-56
2022/01/19 03:17:57;;;;;;;3.93;1.84;;;;;;;;;;353822;147;858036;-56
2022/01/19 03:18:56;;;;;;;4.67;2.11;;;;;;;;;;351234;150;865107;-57
2022/01/19 03:19:58;;;;;;;5.17;2.19;;;;;;;;;;353300;148;865921;-56
2022/01/19 03:21:00;;;;;;;4.69;1.87;;;;;;;;;;353096;151;864830;-56
2022/01/19 03:22:01;;;;;;;4.36;2.19;;;;;;;;;;352092;151;864781;-56
2022/01/19 03:23:16;;;;;;;3.28;2.03;;;;;;;;;;352145;149;866103;-55
2022/01/19 03:24:07;;;;;;;3.10;1.97;;;;;;;;;;352168;151;859194;-55
2022/01/19 03:25:13;;;;;;;5.53;2.52;;;;;;;;;;353080;148;864568;-56
2022/01/19 03:26:15;;;;;;;2.67;1.71;;;;;;;;;;350783;150;857351;-55
2022/01/19 03:27:17;;;;;;;6.05;2.07;;;;;;;;;;353170;148;857858;-56
2022/01/19 03:28:18;;;;;;;4.08;1.99;;;;;;;;;;352898;150;866197;-58
2022/01/19 03:29:20;;;;;;;4.61;2.55;;;;;;;;;;345210;152;857668;-55
2022/01/19 03:30:24;;;;;;;4.72;1.92;;;;;;;;;;345196;154;857270;-55
2022/01/19 03:31:25;;;;;;;3.31;1.62;;;;;;;;;;358655;147;859244;-55
2022/01/19 03:32:27;;;;;;;6.51;2.00;;;;;;;;;;350443;149;865078;-56
2022/01/19 03:33:28;;;;;;;3.77;1.53;;;;;;;;;;356530;147;864930;-56
2022/01/19 03:34:30;;;;;;;2.80;1.98;;;;;;;;;;343772;155;859573;-58
2022/01/19 03:35:32;;;;;;;5.41;1.78;;;;;;;;;;346885;147;865336;-59
2022/01/19 03:36:34;;;;;;;3.53;1.79;;;;;;;;;;353997;147;865012;-58
2022/01/19 03:37:35;;;;;;;2.58;1.71;;;;;;;;;;350607;150;857200;-57
2022/01/19 03:38:37;;;;;;;2.74;1.72;;;;;;;;;;350970;151;859231;-54
2022/01/19 03:39:39;;;;;;;13.04;2.10;;;;;;;;;;352263;150;864648;-58
2022/01/19 03:40:40;;;;;;;5.98;2.29;;;;;;;;;;357142;147;862610;-56
2022/01/19 03:41:42;;;;;;;5.08;2.17;;;;;;;;;;357148;147;857240;-57
2022/01/19 03:42:44;;;;;;;4.99;2.01;;;;;;;;;;351990;150;859626;-56
2022/01/19 03:43:46;;;;;;;4.94;2.12;;;;;;;;;;351652;150;866269;-56
2022/01/19 03:44:48;;;;;;;3.14;2.07;;;;;;;;;;357824;147;857300;-57
2022/01/19 03:45:52;;;;;;;2.71;1.82;;;;;;;;;;355139;147;864955;-56
2022/01/19 03:46:59;;;;;;;4.03;1.92;;;;;;;;;;351075;149;864711;-56
2022/01/19 03:48:16;;;;;;;4.49;1.87;;;;;;;;;;352921;148;864928;-57
2022/01/19 03:49:11;;;;;;;5.95;2.24;;;;;;;;;;352863;151;864851;-56
2022/01/19 03:50:13;;;;;;;6.66;2.32;;;;;;;;;;355735;147;857208;-56
2022/01/19 03:51:15;;;;;;;5.03;2.16;;;;;;;;;;354373;147;859642;-56
2022/01/19 03:52:16;;;;;;;2.84;1.71;;;;;;;;;;356700;147;864884;-56
2022/01/19 03:53:18;;;;;;;5.20;2.31;;;;;;;;;;355098;147;866831;-56
2022/01/19 03:54:20;;;;;;;2.85;2.05;;;;;;;;;;351428;150;866632;-56
2022/01/19 03:55:21;;;;;;;3.56;2.38;;;;;;;;;;351355;151;865853;-55
2022/01/19 03:56:24;;;;;;;3.87;2.02;;;;;;;;;;353408;150;865753;-55
2022/01/19 03:57:25;;;;;;;3.01;1.89;;;;;;;;;;350913;150;864954;-55
2022/01/19 03:58:27;;;;;;;4.69;2.25;;;;;;;;;;353120;148;866867;-56
2022/01/19 03:59:29;;;;;;;3.78;2.06;;;;;;;;;;355658;147;857401;-55
2022/01/19 04:00:34;;;;;;;4.55;2.20;;;;;;;;;;354436;147;866630;-58
2022/01/19 04:01:35;;;;;;;4.94;2.02;;;;;;;;;;354930;147;858982;-55
2022/01/19 04:02:36;;;;;;;4.91;2.41;;;;;;;;;;356552;149;867110;-56
2022/01/19 04:04:49;;;;;;;4.91;2.40;;;;;;;;;;354026;148;857887;-56
2022/01/19 04:07:53;;;;;;;4.88;1.73;;;;;;;;;;353199;147;858929;-57
2022/01/19 04:08:54;;;;;;;4.69;2.14;;;;;;;;;;355607;147;865039;-57
2022/01/19 04:09:56;;;;;;;5.09;1.96;;;;;;;;;;355461;147;866086;-58
2022/01/19 04:10:58;;;;;;;6.08;2.61;;;;;;;;;;355888;147;857411;-57
2022/01/19 04:12:00;;;;;;;3.68;1.97;;;;;;;;;;353751;147;857938;-57
2022/01/19 04:14:22;;;;;;;3.04;1.93;;;;;;;;;;349972;150;857291;-56
2022/01/19 04:15:24;;;;;;;5.15;1.93;;;;;;;;;;355353;147;857830;-56
2022/01/19 04:16:27;;;;;;;4.69;2.11;;;;;;;;;;356766;150;857608;-55
2022/01/19 04:17:29;;;;;;;3.19;2.07;;;;;;;;;;352041;150;864871;-55
2022/01/19 04:18:31;;;;;;;3.97;1.95;;;;;;;;;;351897;149;857487;-56
2022/01/19 04:19:44;;;;;;;5.21;2.35;;;;;;;;;;350016;151;857344;-56
2022/01/19 04:20:41;;;;;;;4.47;1.94;;;;;;;;;;354806;147;867093;-57
2022/01/19 04:21:40;;;;;;;4.71;1.95;;;;;;;;;;355487;147;864895;-56
2022/01/19 04:22:42;;;;;;;6.19;2.21;;;;;;;;;;357155;147;864900;-57
2022/01/19 04:23:44;;;;;;;5.24;2.36;;;;;;;;;;354719;150;867197;-57
2022/01/19 04:24:46;;;;;;;5.57;2.67;;;;;;;;;;354783;148;865006;-57
2022/01/19 04:25:48;;;;;;;4.89;2.25;;;;;;;;;;355305;149;857292;-56
2022/01/19 04:28:10;;;;;;;6.16;2.18;;;;;;;;;;357251;147;859607;-56
2022/01/19 04:29:12;;;;;;;3.02;1.85;;;;;;;;;;354906;147;858955;-56
2022/01/19 04:30:14;;;;;;;4.43;2.35;;;;;;;;;;357827;147;857368;-55
2022/01/19 04:31:16;;;;;;;8.75;2.27;;;;;;;;;;354897;150;866711;-55
2022/01/19 04:32:24;;;;;;;4.60;2.13;;;;;;;;;;354746;147;857381;-55
2022/01/19 04:33:25;;;;;;;4.62;2.15;;;;;;;;;;355942;147;857339;-56
2022/01/19 04:34:25;;;;;;;4.90;2.39;;;;;;;;;;359491;147;857477;-55
2022/01/19 04:35:29;;;;;;;6.15;2.70;;;;;;;;;;353096;150;866752;-55
2022/01/19 04:37:52;;;;;;;3.69;2.02;;;;;;;;;;358612;147;857237;-55
2022/01/19 04:39:21;;;;;;;4.63;1.98;;;;;;;;;;354111;147;866242;-55
2022/01/19 04:46:51;;;;;;;6.23;2.39;;;;;;;;;;349839;150;857584;-55
2022/01/19 05:01:50;;;;;;;;;;;;;;;;;;354150;150;856992;-60
2022/01/19 05:04:09;;;;;;;4.66;2.27;;;;;;;;;;348388;152;860095;-56
2022/01/19 05:05:14;;;;;;;3.77;2.07;;;;;;;;;;346628;152;859053;-55
2022/01/19 05:06:13;;;;;;;5.20;2.06;;;;;;;;;;347497;152;858451;-56
2022/01/19 05:07:21;;;;;;;4.26;1.98;;;;;;;;;;347328;150;857393;-58
2022/01/19 05:08:37;;;;;;;5.28;2.36;;;;;;;;;;348963;152;857861;-57
2022/01/19 05:14:12;;;;;;;4.03;2.07;;;;;;;;;;350352;150;865943;-59
2022/01/19 05:15:14;;;;;;;6.71;2.36;;;;;;;;;;347583;150;857232;-61
2022/01/19 05:16:19;;;;;;;5.02;2.06;;;;;;;;;;349741;152;864890;-61
2022/01/19 05:17:20;;;;;;;5.30;2.29;;;;;;;;;;349908;150;858755;-62
2022/01/19 05:18:22;;;;;;;4.63;2.27;;;;;;;;;;348627;152;857109;-63
2022/01/19 05:19:24;;;;;;;5.05;2.01;;;;;;;;;;350255;150;866439;-56
2022/01/19 05:20:26;;;;;;;2.00;1.79;;;;;;;;;;344180;154;857328;-57
2022/01/19 05:21:28;;;;;;;5.97;2.14;;;;;;;;;;344268;153;857309;-57
2022/01/19 05:22:30;;;;;;;4.43;2.17;;;;;;;;;;344791;153;866606;-55
2022/01/19 05:23:32;;;;;;;1.81;1.30;;;;;;;;;;346945;152;857297;-56
2022/01/19 05:24:34;;;;;;;5.71;2.41;;;;;;;;;;340838;155;857637;-56
2022/01/19 05:25:36;;;;;;;4.43;2.59;;;;;;;;;;344784;153;858685;-56
2022/01/19 05:26:38;;;;;;;6.63;2.29;;;;;;;;;;349568;150;858284;-58
2022/01/19 05:27:40;;;;;;;5.44;2.39;;;;;;;;;;350914;150;865733;-59
2022/01/19 05:28:42;;;;;;;3.75;2.13;;;;;;;;;;349340;152;858235;-55
2022/01/19 05:29:43;;;;;;;5.78;1.83;;;;;;;;;;349784;150;857321;-56
2022/01/19 05:30:45;;;;;;;3.93;2.14;;;;;;;;;;347446;151;857282;-54
2022/01/19 05:31:47;;;;;;;9.94;2.26;;;;;;;;;;344352;153;866560;-53
2022/01/19 05:32:48;;;;;;;4.57;2.27;;;;;;;;;;345455;152;865701;-58
2022/01/19 05:33:50;;;;;;;3.79;2.01;;;;;;;;;;347064;151;864942;-56
2022/01/19 05:34:52;;;;;;;6.16;2.36;;;;;;;;;;346426;151;857408;-56
2022/01/19 05:35:53;;;;;;;4.67;2.62;;;;;;;;;;344957;153;865302;-57
2022/01/19 05:36:55;;;;;;;8.09;2.32;;;;;;;;;;345023;151;865499;-57
2022/01/19 05:37:57;;;;;;;3.79;1.88;;;;;;;;;;342766;155;857387;-57
2022/01/19 05:39:00;;;;;;;4.84;2.27;;;;;;;;;;339022;157;864920;-56
2022/01/19 05:40:03;;;;;;;5.65;2.33;;;;;;;;;;342904;155;857333;-56
2022/01/19 05:41:05;;;;;;;5.20;2.44;;;;;;;;;;344529;154;868169;-56
2022/01/19 05:42:13;;;;;;;6.09;2.44;;;;;;;;;;344431;153;857256;-56
2022/01/19 05:43:10;;;;;;;5.59;2.39;;;;;;;;;;342800;153;866699;-56
2022/01/19 05:44:12;;;;;;;5.29;2.34;;;;;;;;;;344552;154;867427;-55
2022/01/19 05:45:13;;;;;;;5.95;2.52;;;;;;;;;;344127;152;865676;-56
2022/01/19 05:46:17;;;;;;;3.63;2.04;;;;;;;;;;339230;155;865102;-55
2022/01/19 05:47:20;;;;;;;9.04;2.22;;;;;;;;;;343245;154;859296;-55
2022/01/19 05:48:21;;;;;;;5.61;2.59;;;;;;;;;;348726;152;858368;-57
2022/01/19 05:49:24;;;;;;;4.99;2.61;;;;;;;;;;348138;151;865198;-57
2022/01/19 05:50:27;;;;;;;5.86;2.30;;;;;;;;;;350255;150;864964;-56
2022/01/19 05:51:29;;;;;;;4.66;2.23;;;;;;;;;;349081;152;860507;-54
2022/01/19 05:52:30;;;;;;;6.25;3.01;;;;;;;;;;349433;150;857311;-55
2022/01/19 05:53:32;;;;;;;5.13;2.26;;;;;;;;;;354376;150;859248;-54
2022/01/19 05:54:34;;;;;;;8.25;2.63;;;;;;;;;;354510;149;865236;-56
2022/01/19 05:55:35;;;;;;;5.74;2.29;;;;;;;;;;350891;149;859154;-54
2022/01/19 05:56:38;;;;;;;6.56;2.40;;;;;;;;;;350814;150;868518;-54
2022/01/19 05:57:40;;;;;;;5.89;2.46;;;;;;;;;;351487;151;857322;-55
2022/01/19 05:58:42;;;;;;;6.22;2.50;;;;;;;;;;353282;148;864905;-56
2022/01/19 05:59:43;;;;;;;6.91;3.06;;;;;;;;;;352053;150;866642;-58
2022/01/19 06:00:45;;;;;;;6.27;2.87;;;;;;;;;;355878;147;865909;-55
2022/01/19 06:01:47;;;;;;;4.89;2.36;;;;;;;;;;353381;150;859904;-57
2022/01/19 06:02:49;;;;;;;7.23;2.45;;;;;;;;;;351069;149;865052;-55
2022/01/19 06:03:52;;;;;;;7.26;2.61;;;;;;;;;;355436;149;857482;-56
2022/01/19 06:04:53;;;;;;;5.72;2.53;;;;;;;;;;355977;147;857409;-56
2022/01/19 06:05:55;;;;;;;6.89;2.82;;;;;;;;;;355750;148;857379;-56
2022/01/19 06:06:57;;;;;;;5.30;2.58;;;;;;;;;;355066;148;865019;-56
2022/01/19 06:08:17;;;;;;;5.39;2.46;;;;;;;;;;355496;147;864944;-57
2022/01/19 06:09:33;;;;;;;4.73;2.34;;;;;;;;;;356671;147;857748;-54
2022/01/19 06:10:44;;;;;;;4.64;2.36;;;;;;;;;;353966;148;858933;-55
2022/01/19 06:11:46;;;;;;;5.53;2.84;;;;;;;;;;355437;148;858548;-56
2022/01/19 06:12:47;;;;;;;5.51;2.59;;;;;;;;;;353623;150;857522;-56
2022/01/19 06:13:49;;;;;;;5.32;2.69;;;;;;;;;;355930;147;857490;-57
2022/01/19 06:14:51;;;;;;;5.08;2.76;;;;;;;;;;354692;149;863960;-56
2022/01/19 06:15:52;;;;;;;5.38;2.91;;;;;;;;;;355020;151;863987;-56
2022/01/19 06:16:54;;;;;;;5.99;2.70;;;;;;;;;;351388;149;864374;-56
2022/01/19 06:17:56;;;;;;;4.09;2.46;;;;;;;;;;355481;149;860291;-55
2022/01/19 06:18:57;;;;;;;5.05;2.66;;;;;;;;;;356712;150;865004;-55
2022/01/19 06:19:59;;;;;;;4.91;2.82;;;;;;;;;;352648;149;866723;-55
2022/01/19 06:21:00;;;;;;;5.86;3.07;;;;;;;;;;351354;150;863117;-57
2022/01/19 06:22:03;;;;;;;6.62;3.02;;;;;;;;;;353104;149;858882;-55
2022/01/19 06:23:04;;;;;;;6.52;3.01;;;;;;;;;;359591;147;860275;-55
2022/01/19 06:24:06;;;;;;;4.95;2.34;;;;;;;;;;355754;147;857426;-55
2022/01/19 06:25:08;;;;;;;7.24;3.09;;;;;;;;;;353911;149;864845;-55
2022/01/19 06:26:10;;;;;;;7.91;2.79;;;;;;;;;;356066;150;864844;-55
2022/01/19 06:27:12;;;;;;;7.24;2.70;;;;;;;;;;356008;147;858923;-55
2022/01/19 06:28:14;;;;;;;3.76;2.03;;;;;;;;;;357152;147;864899;-55
2022/01/19 06:29:15;;;;;;;7.15;2.57;;;;;;;;;;356732;147;864948;-55
2022/01/19 06:30:18;;;;;;;5.65;2.99;;;;;;;;;;356836;147;864982;-55
2022/01/19 06:31:19;;;;;;;6.99;2.99;;;;;;;;;;349873;149;859153;-55
2022/01/19 06:32:22;;;;;;;7.26;2.89;;;;;;;;;;354055;150;866104;-55
2022/01/19 06:33:24;;;;;;;7.37;2.95;;;;;;;;;;354192;147;860689;-55
2022/01/19 06:34:25;;;;;;;4.95;2.73;;;;;;;;;;352713;149;863961;-56
2022/01/19 06:35:27;;;;;;;3.96;1.87;;;;;;;;;;351474;150;856260;-56
2022/01/19 06:36:29;;;;;;;7.41;2.55;;;;;;;;;;352467;149;864021;-55
2022/01/19 06:37:31;;;;;;;8.32;3.17;;;;;;;;;;353870;149;856105;-55
2022/01/19 06:38:32;;;;;;;5.24;2.81;;;;;;;;;;350910;150;863700;-55
2022/01/19 06:39:34;;;;;;;8.52;3.49;;;;;;;;;;354950;148;863756;-56
2022/01/19 06:40:36;;;;;;;6.19;3.01;;;;;;;;;;351932;150;864119;-58
2022/01/19 06:41:37;;;;;;;2.33;1.44;;;;;;;;;;352257;150;864287;-56
2022/01/19 06:42:39;;;;;;;6.83;2.83;;;;;;;;;;352073;149;863922;-56
2022/01/19 06:43:41;;;;;;;6.69;3.06;;;;;;;;;;352181;149;856613;-55
2022/01/19 06:44:43;;;;;;;5.35;2.69;;;;;;;;;;357930;147;856150;-55
2022/01/19 06:45:44;;;;;;;8.39;3.26;;;;;;;;;;356417;147;856092;-55
2022/01/19 06:46:46;;;;;;;9.31;3.28;;;;;;;;;;351788;150;866607;-54
2022/01/19 06:47:47;;;;;;;8.37;3.45;;;;;;;;;;354675;148;864929;-55
2022/01/19 06:48:49;;;;;;;6.49;2.79;;;;;;;;;;352906;149;865902;-55
2022/01/19 06:49:51;;;;;;;5.30;2.86;;;;;;;;;;351377;150;865975;-55
2022/01/19 06:50:52;;;;;;;7.08;3.56;;;;;;;;;;355946;150;864883;-56
2022/01/19 06:51:54;;;;;;;11.21;3.85;;;;;;;;;;354380;150;864971;-55
2022/01/19 06:52:56;;;;;;;4.10;2.80;;;;;;;;;;354648;147;861522;-54
2022/01/19 06:53:58;;;;;;;10.36;3.33;;;;;;;;;;352978;149;859193;-55
2022/01/19 06:55:00;;;;;;;10.55;3.93;;;;;;;;;;353270;151;863728;-56
2022/01/19 06:56:02;;;;;;;7.71;3.42;;;;;;;;;;344913;151;864429;-55
2022/01/19 06:57:03;;;;;;;12.41;4.01;;;;;;;;;;345527;152;857360;-56
2022/01/19 06:58:05;;;;;;;10.24;4.03;;;;;;;;;;345326;151;863906;-56
2022/01/19 06:59:07;;;;;;;8.75;4.20;;;;;;;;;;349035;154;863790;-55
2022/01/19 07:00:10;;;;;;;9.25;3.81;;;;;;;;;;344348;151;864658;-56
2022/01/19 07:01:12;;;;;;;7.28;3.32;;;;;;;;;;345089;151;856649;-55
2022/01/19 07:02:14;;;;;;;9.31;4.09;;;;;;;;;;350215;152;856250;-55
2022/01/19 07:03:16;;;;;;;10.05;3.58;;;;;;;;;;346111;151;856651;-55
2022/01/19 07:04:18;;;;;;;6.08;2.97;;;;;;;;;;346596;152;863929;-55
2022/01/19 07:05:19;;;;;;;9.41;4.01;;;;;;;;;;345228;152;864136;-56
2022/01/19 07:06:21;;;;;;;8.97;3.57;;;;;;;;;;342573;154;856099;-55
2022/01/19 07:07:23;;;;;;;5.41;2.93;;;;;;;;;;344860;151;856360;-56
2022/01/19 07:08:25;;;;;;;7.58;3.19;;;;;;;;;;344824;151;863772;-56
2022/01/19 07:09:26;;;;;;;5.53;2.86;;;;;;;;;;345347;154;856154;-56
2022/01/19 07:10:31;;;;;;;7.73;3.19;;;;;;;;;;344323;151;864381;-55
2022/01/19 07:11:33;;;;;;;4.99;3.06;;;;;;;;;;345785;152;863891;-55
2022/01/19 07:12:34;;;;;;;9.11;3.28;;;;;;;;;;346240;151;856188;-56
2022/01/19 07:13:36;;;;;;;8.39;3.53;;;;;;;;;;346709;153;864335;-55
2022/01/19 07:14:37;;;;;;;7.73;3.25;;;;;;;;;;345186;151;864555;-56
2022/01/19 07:15:40;;;;;;;6.59;3.34;;;;;;;;;;346636;151;859698;-56
2022/01/19 07:16:42;;;;;;;6.67;2.95;;;;;;;;;;346267;153;863715;-56
2022/01/19 07:17:43;;;;;;;7.41;3.24;;;;;;;;;;345222;151;863781;-56
2022/01/19 07:18:45;;;;;;;7.91;3.56;;;;;;;;;;345669;152;863780;-55
2022/01/19 07:19:47;;;;;;;9.20;3.14;;;;;;;;;;345503;151;863585;-56
2022/01/19 07:20:48;;;;;;;6.50;3.17;;;;;;;;;;348888;153;864128;-56
2022/01/19 07:21:50;;;;;;;7.83;2.63;;;;;;;;;;343646;151;856422;-56
2022/01/19 07:22:52;;;;;;;6.27;2.78;;;;;;;;;;346388;152;864377;-56
2022/01/19 07:23:53;;;;;;;8.16;2.90;;;;;;;;;;347637;154;863862;-56
2022/01/19 07:24:56;;;;;;;8.35;3.02;;;;;;;;;;346482;151;863828;-56
2022/01/19 07:25:58;;;;;;;7.42;3.08;;;;;;;;;;345266;151;863822;-56
2022/01/19 07:27:00;;;;;;;8.21;3.42;;;;;;;;;;347919;151;856090;-56
2022/01/19 07:28:02;;;;;;;7.45;3.19;;;;;;;;;;346891;151;856179;-56